Scottish Viking — IBDZ — position and weather

sailwx.info

Track history (hours):
 
Tides and Currents Weather Stations Pressure Air Temp Water Temp Dewpoint Dewpoint Depression Visibility Wind Speed Wind Dir Waves Ship Positions

Scottish Viking

Last reported at 2017-Jun-23 03:43 UTC. Time now 2017-Jun-23 15:33 UTC.
Position N 57°50' E 020°19'.

Length 186 m; draft 6.5 m.

Type: Passenger vessel. MMSI: 247265800.

Date/timePositionNaut miles runAvg speedWind from/ knotsBaromVisibWave heightAir tempDewpointWater temp
2017-Jun-23 03:43N 57°50' E 020°19'523.4
2017-Jun-23 03:30N 57°52' E 020°11'1122.9
2017-Jun-23 03:01N 57°58' E 019°52'1223.2
2017-Jun-23 02:30N 58°04' E 019°34'1223.1
2017-Jun-23 02:00N 58°10' E 019°15'1223.1
2017-Jun-23 01:29N 58°18' E 018°58'1423.3
2017-Jun-23 00:53N 58°28' E 018°40'923.4
2017-Jun-23 00:31N 58°35' E 018°28'1223.3
2017-Jun-23 00:00N 58°43' E 018°13'14 7.7
2017-Jun-22 22:14N 58°54' E 017°58'0 0.0
2017-Jun-22 21:59N 58°54' E 017°58'0 0.0
2017-Jun-22 21:20N 58°54' E 017°58'0 0.0
2017-Jun-22 20:56N 58°54' E 017°58'0 0.0
2017-Jun-22 20:23N 58°54' E 017°58'  
2017-Jun-19 20:46N 58°35' E 018°29'519.4
2017-Jun-19 20:30N 58°38' E 018°22'1020.2
2017-Jun-19 20:00N 58°46' E 018°09'816.0
2017-Jun-19 19:30N 58°53' E 018°01'28 2.0
2017-Jun-19 05:26N 58°31' E 018°35'1220.7
2017-Jun-19 04:52N 58°23' E 018°50'4314.2
2017-Jun-19 01:51N 57°59' E 019°58'62 3.1
2017-Jun-18 05:52N 57°24' E 021°34'4 1.7
2017-Jun-18 03:10N 57°27' E 021°28'417.1
2017-Jun-18 02:56N 57°29' E 021°22'1519.9
2017-Jun-18 02:10N 57°37' E 020°57'417.5
2017-Jun-18 01:57N 57°39' E 020°52'2318.9
2017-Jun-18 00:46N 57°50' E 020°14'519.2
2017-Jun-18 00:30N 57°52' E 020°07'1019.6
2017-Jun-17 23:59N 57°59' E 019°51'919.7
2017-Jun-17 23:30N 58°04' E 019°36'1019.7
2017-Jun-17 22:58N 58°09' E 019°19'1319.5
2017-Jun-17 22:19N 58°17' E 018°60'620.0
2017-Jun-17 22:00N 58°21' E 018°51'1020.0
2017-Jun-17 21:30N 58°28' E 018°37'2619.5
2017-Jun-17 20:11N 58°48' E 018°05'7 1.6
2017-Jun-17 15:54N 58°54' E 018°01'1117.7
2017-Jun-17 15:18N 58°45' E 018°10'720.5
2017-Jun-17 14:59N 58°40' E 018°19'3120.6
2017-Jun-17 13:29N 58°18' E 018°60'1020.4
2017-Jun-17 12:59N 58°11' E 019°14'1420.2
2017-Jun-17 12:18N 58°05' E 019°38'720.3
2017-Jun-17 11:59N 58°02' E 019°49'10 0.9
2017-Jun-17 00:32N 58°05' E 019°31'120.1
2017-Jun-17 00:30N 58°05' E 019°30'1320.1
2017-Jun-16 23:50N 58°13' E 019°09'1220.1
2017-Jun-16 23:16N 58°21' E 018°54'520.2
2017-Jun-16 23:00N 58°25' E 018°47'1920.1
2017-Jun-16 22:05N 58°38' E 018°22'220.1
2017-Jun-16 22:00N 58°39' E 018°20'1020.1
2017-Jun-16 21:30N 58°46' E 018°07'714.0
2017-Jun-16 21:00N 58°53' E 018°01'3 3.0
2017-Jun-16 20:09N 58°54' E 017°58'0 0.0
2017-Jun-16 20:00N 58°54' E 017°58'0 0.0
2017-Jun-16 19:27N 58°54' E 017°58'0 0.0
2017-Jun-16 19:00N 58°54' E 017°58'0 0.3
2017-Jun-16 18:30N 58°54' E 017°58'2 4.8
2017-Jun-16 18:00N 58°53' E 018°01'510.0
2017-Jun-16 17:30N 58°48' E 018°04'1122.2
2017-Jun-16 17:01N 58°40' E 018°19'1122.3
2017-Jun-16 16:31N 58°32' E 018°34'1122.0
2017-Jun-16 16:00N 58°24' E 018°48'1122.0
2017-Jun-16 15:31N 58°16' E 019°03'1121.9
2017-Jun-16 15:00N 58°09' E 019°19'1122.0
2017-Jun-16 14:31N 58°04' E 019°37'1313.3
2017-Jun-16 13:30N 57°58' E 019°60'714.2
2017-Jun-16 13:00N 57°54' E 020°10'713.9
2017-Jun-16 12:30N 57°50' E 020°21'713.9
2017-Jun-16 12:00N 57°46' E 020°32'713.9
2017-Jun-16 11:30N 57°42' E 020°43'714.0
2017-Jun-16 11:00N 57°37' E 020°53'714.1
2017-Jun-16 10:30N 57°33' E 021°03'714.0
2017-Jun-16 10:00N 57°29' E 021°13'713.7
2017-Jun-16 09:30N 57°25' E 021°24'510.0
2017-Jun-16 09:00N 57°24' E 021°33'1 1.0
2017-Jun-16 08:30N 57°24' E 021°34'21 3.3
2017-Jun-16 02:16N 57°36' E 021°02'519.6
2017-Jun-16 02:00N 57°38' E 020°54'917.7
2017-Jun-16 01:31N 57°43' E 020°40'1019.4
2017-Jun-16 01:01N 57°48' E 020°25'1019.3
2017-Jun-16 00:31N 57°53' E 020°09'1019.2
2017-Jun-16 00:00N 57°58' E 019°54'1019.1
2017-Jun-15 23:31N 58°03' E 019°38'1019.2
2017-Jun-15 23:01N 58°08' E 019°23'918.8
2017-Jun-15 22:31N 58°13' E 019°08'1019.3
2017-Jun-15 22:01N 58°20' E 018°56'1019.8
2017-Jun-15 21:30N 58°27' E 018°42'1019.6
2017-Jun-15 21:00N 58°34' E 018°29'1019.8
2017-Jun-15 20:30N 58°42' E 018°16'918.5
2017-Jun-15 20:01N 58°48' E 018°04'714.1
2017-Jun-15 19:30N 58°55' E 017°58'0 0.1
2017-Jun-15 15:13N 58°54' E 017°58'2 5.8
2017-Jun-15 14:53N 58°54' E 018°01'2217.4
2017-Jun-15 13:36N 58°36' E 018°26'218.4
2017-Jun-15 13:31N 58°35' E 018°29'1019.0
2017-Jun-15 13:00N 58°28' E 018°41'1019.7
2017-Jun-15 12:30N 58°20' E 018°53'918.1
2017-Jun-15 12:00N 58°14' E 019°05'816.4
2017-Jun-15 11:30N 58°10' E 019°19'1121.4
2017-Jun-15 11:00N 58°04' E 019°36'917.6
2017-Jun-15 10:31N 57°59' E 019°50'918.1
2017-Jun-15 10:00N 57°54' E 020°05'89 6.3
2017-Jun-14 19:48N 58°55' E 017°58'19 3.4
2017-Jun-14 14:00N 58°39' E 018°20'4617.6
2017-Jun-14 11:24N 58°08' E 019°25'918.7
2017-Jun-14 10:54N 58°03' E 019°40'819.5
2017-Jun-14 10:30N 57°59' E 019°52'1219.2
2017-Jun-14 09:53N 57°53' E 020°11'819.1
2017-Jun-14 09:28N 57°48' E 020°24'919.1
2017-Jun-14 09:00N 57°43' E 020°37'919.1
2017-Jun-14 08:31N 57°38' E 020°52'1919.2
2017-Jun-14 07:32N 57°26' E 021°19'118.8
2017-Jun-14 07:29N 57°26' E 021°21'713.6
2017-Jun-14 07:00N 57°24' E 021°33'145 9.2
2017-Jun-13 15:10N 58°54' E 017°58'1 5.1
2017-Jun-13 14:59N 58°55' E 017°59'  
Track history (hours):
 
Tides and Currents Weather Stations Pressure Air Temp Water Temp Dewpoint Dewpoint Depression Visibility Wind Speed Wind Dir Waves Ship Positions

Scottish Viking

Last reported at 2017-Jun-23 03:43 UTC. Time now 2017-Jun-23 15:33 UTC.
Position N 57°50' E 020°19'.

Length 186 m; draft 6.5 m.

Type: Passenger vessel. MMSI: 247265800.

Date/timePositionNaut miles runAvg speedWind from/ knotsBaromVisibWave heightAir tempDewpointWater temp
2017-Jun-23 03:43N 57°50' E 020°19'523.4
2017-Jun-23 03:30N 57°52' E 020°11'1122.9
2017-Jun-23 03:01N 57°58' E 019°52'1223.2
2017-Jun-23 02:30N 58°04' E 019°34'1223.1
2017-Jun-23 02:00N 58°10' E 019°15'1223.1
2017-Jun-23 01:29N 58°18' E 018°58'1423.3
2017-Jun-23 00:53N 58°28' E 018°40'923.4
2017-Jun-23 00:31N 58°35' E 018°28'1223.3
2017-Jun-23 00:00N 58°43' E 018°13'14 7.7
2017-Jun-22 22:14N 58°54' E 017°58'0 0.0
2017-Jun-22 21:59N 58°54' E 017°58'0 0.0
2017-Jun-22 21:20N 58°54' E 017°58'0 0.0
2017-Jun-22 20:56N 58°54' E 017°58'0 0.0
2017-Jun-22 20:23N 58°54' E 017°58'  
2017-Jun-19 20:46N 58°35' E 018°29'519.4
2017-Jun-19 20:30N 58°38' E 018°22'1020.2
2017-Jun-19 20:00N 58°46' E 018°09'816.0
2017-Jun-19 19:30N 58°53' E 018°01'28 2.0
2017-Jun-19 05:26N 58°31' E 018°35'1220.7
2017-Jun-19 04:52N 58°23' E 018°50'4314.2
2017-Jun-19 01:51N 57°59' E 019°58'62 3.1
2017-Jun-18 05:52N 57°24' E 021°34'4 1.7
2017-Jun-18 03:10N 57°27' E 021°28'417.1
2017-Jun-18 02:56N 57°29' E 021°22'1519.9
2017-Jun-18 02:10N 57°37' E 020°57'417.5
2017-Jun-18 01:57N 57°39' E 020°52'2318.9
2017-Jun-18 00:46N 57°50' E 020°14'519.2
2017-Jun-18 00:30N 57°52' E 020°07'1019.6
2017-Jun-17 23:59N 57°59' E 019°51'919.7
2017-Jun-17 23:30N 58°04' E 019°36'1019.7
2017-Jun-17 22:58N 58°09' E 019°19'1319.5
2017-Jun-17 22:19N 58°17' E 018°60'620.0
2017-Jun-17 22:00N 58°21' E 018°51'1020.0
2017-Jun-17 21:30N 58°28' E 018°37'2619.5
2017-Jun-17 20:11N 58°48' E 018°05'7 1.6
2017-Jun-17 15:54N 58°54' E 018°01'1117.7
2017-Jun-17 15:18N 58°45' E 018°10'720.5
2017-Jun-17 14:59N 58°40' E 018°19'3120.6
2017-Jun-17 13:29N 58°18' E 018°60'1020.4
2017-Jun-17 12:59N 58°11' E 019°14'1420.2
2017-Jun-17 12:18N 58°05' E 019°38'720.3
2017-Jun-17 11:59N 58°02' E 019°49'10 0.9
2017-Jun-17 00:32N 58°05' E 019°31'120.1
2017-Jun-17 00:30N 58°05' E 019°30'1320.1
2017-Jun-16 23:50N 58°13' E 019°09'1220.1
2017-Jun-16 23:16N 58°21' E 018°54'520.2
2017-Jun-16 23:00N 58°25' E 018°47'1920.1
2017-Jun-16 22:05N 58°38' E 018°22'220.1
2017-Jun-16 22:00N 58°39' E 018°20'1020.1
2017-Jun-16 21:30N 58°46' E 018°07'714.0
2017-Jun-16 21:00N 58°53' E 018°01'3 3.0
2017-Jun-16 20:09N 58°54' E 017°58'0 0.0
2017-Jun-16 20:00N 58°54' E 017°58'0 0.0
2017-Jun-16 19:27N 58°54' E 017°58'0 0.0
2017-Jun-16 19:00N 58°54' E 017°58'0 0.3
2017-Jun-16 18:30N 58°54' E 017°58'2 4.8
2017-Jun-16 18:00N 58°53' E 018°01'510.0
2017-Jun-16 17:30N 58°48' E 018°04'1122.2
2017-Jun-16 17:01N 58°40' E 018°19'1122.3
2017-Jun-16 16:31N 58°32' E 018°34'1122.0
2017-Jun-16 16:00N 58°24' E 018°48'1122.0
2017-Jun-16 15:31N 58°16' E 019°03'1121.9
2017-Jun-16 15:00N 58°09' E 019°19'1122.0
2017-Jun-16 14:31N 58°04' E 019°37'1313.3
2017-Jun-16 13:30N 57°58' E 019°60'714.2
2017-Jun-16 13:00N 57°54' E 020°10'713.9
2017-Jun-16 12:30N 57°50' E 020°21'713.9
2017-Jun-16 12:00N 57°46' E 020°32'713.9
2017-Jun-16 11:30N 57°42' E 020°43'714.0
2017-Jun-16 11:00N 57°37' E 020°53'714.1
2017-Jun-16 10:30N 57°33' E 021°03'714.0
2017-Jun-16 10:00N 57°29' E 021°13'713.7
2017-Jun-16 09:30N 57°25' E 021°24'510.0
2017-Jun-16 09:00N 57°24' E 021°33'1 1.0
2017-Jun-16 08:30N 57°24' E 021°34'21 3.3
2017-Jun-16 02:16N 57°36' E 021°02'519.6
2017-Jun-16 02:00N 57°38' E 020°54'917.7
2017-Jun-16 01:31N 57°43' E 020°40'1019.4
2017-Jun-16 01:01N 57°48' E 020°25'1019.3
2017-Jun-16 00:31N 57°53' E 020°09'1019.2
2017-Jun-16 00:00N 57°58' E 019°54'1019.1
2017-Jun-15 23:31N 58°03' E 019°38'1019.2
2017-Jun-15 23:01N 58°08' E 019°23'918.8
2017-Jun-15 22:31N 58°13' E 019°08'1019.3
2017-Jun-15 22:01N 58°20' E 018°56'1019.8
2017-Jun-15 21:30N 58°27' E 018°42'1019.6
2017-Jun-15 21:00N 58°34' E 018°29'1019.8
2017-Jun-15 20:30N 58°42' E 018°16'918.5
2017-Jun-15 20:01N 58°48' E 018°04'714.1
2017-Jun-15 19:30N 58°55' E 017°58'0 0.1
2017-Jun-15 15:13N 58°54' E 017°58'2 5.8
2017-Jun-15 14:53N 58°54' E 018°01'2217.4
2017-Jun-15 13:36N 58°36' E 018°26'218.4
2017-Jun-15 13:31N 58°35' E 018°29'1019.0
2017-Jun-15 13:00N 58°28' E 018°41'1019.7
2017-Jun-15 12:30N 58°20' E 018°53'918.1
2017-Jun-15 12:00N 58°14' E 019°05'816.4
2017-Jun-15 11:30N 58°10' E 019°19'1121.4
2017-Jun-15 11:00N 58°04' E 019°36'917.6
2017-Jun-15 10:31N 57°59' E 019°50'918.1
2017-Jun-15 10:00N 57°54' E 020°05'89 6.3
2017-Jun-14 19:48N 58°55' E 017°58'19 3.4
2017-Jun-14 14:00N 58°39' E 018°20'4617.6
2017-Jun-14 11:24N 58°08' E 019°25'918.7
2017-Jun-14 10:54N 58°03' E 019°40'819.5
2017-Jun-14 10:30N 57°59' E 019°52'1219.2
2017-Jun-14 09:53N 57°53' E 020°11'819.1
2017-Jun-14 09:28N 57°48' E 020°24'919.1
2017-Jun-14 09:00N 57°43' E 020°37'919.1
2017-Jun-14 08:31N 57°38' E 020°52'1919.2
2017-Jun-14 07:32N 57°26' E 021°19'118.8
2017-Jun-14 07:29N 57°26' E 021°21'713.6
2017-Jun-14 07:00N 57°24' E 021°33'145 9.2
2017-Jun-13 15:10N 58°54' E 017°58'1 5.1
2017-Jun-13 14:59N 58°55' E 017°59'  

Dump ship's entire track history